Time;durP1;ratioP1;P1;durP2;ratioP2;P2;SDS_P1;SDS_P2;PMS_P1;PMS_P2;Temp;Humidity;BMP_temperature;BMP_pressure;BME280_temperature;BME280_humidity;BME280_pressure;Samples;Min_cycle;Max_cycle;Signal;HPM_P1;HPM_P2
2022/08/23 00:01:00;;;;;;;;;;;;;;;30.12;76.15;100683.94;5051728;28;71003;-36
2022/08/23 00:03:33;;;;;;;;;;;;;;;30.09;76.01;100678.13;5079779;28;67026;-34
2022/08/23 00:06:06;;;;;;;;;;;;;;;30.06;76.00;100684.78;5082884;28;70719;-35
2022/08/23 00:08:37;;;;;;;;;;;;;;;30.08;76.91;100682.72;5083364;27;66653;-33
2022/08/23 00:11:27;;;;;;;;;;;;;;;30.05;77.10;100688.56;5082518;28;70782;-33
2022/08/23 00:14:00;;;;;;;;;;;;;;;30.13;77.38;100690.19;5083433;28;67024;-35
2022/08/23 00:16:32;;;;;;;;;;;;;;;30.19;76.92;100695.53;5081972;28;70941;-37
2022/08/23 00:19:05;;;;;;;;;;;;;;;30.23;76.49;100702.19;5083032;28;67251;-37
2022/08/23 00:21:37;;;;;;;;;;;;;;;30.27;76.40;100711.53;5082686;28;69971;-35
2022/08/23 00:24:10;;;;;;;;;;;;;;;30.30;75.68;100725.66;5083716;27;66138;-36
2022/08/23 00:27:00;;;;;;;;;;;;;;;30.32;75.64;100731.69;5083143;28;70028;-36
2022/08/23 00:29:40;;;;;;;;;;;;;;;30.37;75.68;100731.84;5035145;28;67066;-36
2022/08/23 00:32:14;;;;;;;;;;;;;;;30.40;75.61;100739.53;5082139;27;70749;-34
2022/08/23 00:34:46;;;;;;;;;;;;;;;30.44;75.89;100748.88;5082342;27;67260;-34
2022/08/23 00:37:18;;;;;;;;;;;;;;;30.44;75.95;100757.81;5061985;27;70215;-35
2022/08/23 00:39:50;;;;;;;;;;;;;;;30.46;75.55;100749.47;5063410;28;66196;-33
2022/08/23 00:48:38;;;;;;;;;;;;;;;30.70;73.46;100764.88;5081600;27;69820;-34
2022/08/23 00:51:29;;;;;;;;;;;;;;;30.78;72.91;100768.34;5081503;28;67039;-35
2022/08/23 00:54:13;;;;;;;;;;;;;;;30.85;73.02;100769.16;5059987;27;70186;-35
2022/08/23 00:56:46;;;;;;;;;;;;;;;30.91;72.31;100776.38;5081350;27;66834;-34
2022/08/23 00:59:18;;;;;;;;;;;;;;;30.96;71.75;100773.84;5080927;28;69864;-35
2022/08/23 01:01:51;;;;;;;;;;;;;;;30.99;71.43;100781.53;5080738;27;66304;-35
2022/08/23 01:04:24;;;;;;;;;;;;;;;31.04;71.35;100778.97;5081872;27;70714;-34
2022/08/23 01:07:00;;;;;;;;;;;;;;;31.06;71.12;100779.56;5063533;28;66984;-35
2022/08/23 01:09:32;;;;;;;;;;;;;;;31.10;70.87;100771.84;5081112;28;70735;-34
2022/08/23 01:12:04;;;;;;;;;;;;;;;31.12;70.23;100775.97;5062423;28;67149;-35
2022/08/23 01:14:53;;;;;;;;;;;;;;;31.16;70.35;100777.16;5063431;28;71369;-35
2022/08/23 01:17:28;;;;;;;;;;;;;;;31.19;69.55;100780.50;5078103;28;66233;-34
2022/08/23 01:20:02;;;;;;;;;;;;;;;31.22;69.79;100785.47;5060973;28;71105;-35
2022/08/23 01:22:37;;;;;;;;;;;;;;;31.25;69.67;100779.59;5080639;28;67302;-35
2022/08/23 01:25:13;;;;;;;;;;;;;;;31.27;68.96;100782.91;5062191;28;70774;-35
2022/08/23 01:27:46;;;;;;;;;;;;;;;31.30;68.86;100788.69;5063063;28;66562;-35
2022/08/23 01:30:22;;;;;;;;;;;;;;;31.31;68.55;100790.34;5070328;27;70158;-35
2022/08/23 01:32:58;;;;;;;;;;;;;;;31.34;68.58;100789.06;5057167;28;67075;-34
2022/08/23 01:35:38;;;;;;;;;;;;;;;31.36;68.36;100784.28;4980636;27;2306394;-34
2022/08/23 01:38:11;;;;;;;;;;;;;;;31.38;67.80;100790.31;5068077;28;66398;-35
2022/08/23 01:40:44;;;;;;;;;;;;;;;31.39;67.74;100800.91;5077590;27;70896;-35
2022/08/23 01:43:18;;;;;;;;;;;;;;;31.41;67.93;100794.47;5038371;28;66763;-34
2022/08/23 01:45:53;;;;;;;;;;;;;;;31.43;67.86;100789.66;5050398;28;70779;-35
2022/08/23 01:48:26;;;;;;;;;;;;;;;31.44;67.79;100783.97;5062765;28;66127;-34
2022/08/23 01:50:57;;;;;;;;;;;;;;;31.46;67.34;100786.47;5063399;28;70792;-36
2022/08/23 01:53:31;;;;;;;;;;;;;;;31.46;66.94;100781.88;5047086;27;67727;-35
2022/08/23 01:56:03;;;;;;;;;;;;;;;31.50;67.07;100779.53;5062196;28;70943;-35
2022/08/23 01:58:38;;;;;;;;;;;;;;;31.52;66.77;100775.53;5062183;28;66976;-35
2022/08/23 02:01:10;;;;;;;;;;;;;;;31.54;66.77;100784.28;5060635;28;70890;-35
2022/08/23 02:03:43;;;;;;;;;;;;;;;31.56;66.56;100790.28;5082077;28;67500;-34
2022/08/23 02:06:20;;;;;;;;;;;;;;;31.58;66.92;100784.66;5081836;28;71092;-34
2022/08/23 02:09:01;;;;;;;;;;;;;;;31.59;66.44;100779.03;5081293;27;66544;-35
2022/08/23 02:11:38;;;;;;;;;;;;;;;31.61;66.04;100776.88;5064505;28;70790;-35
2022/08/23 02:14:12;;;;;;;;;;;;;;;31.63;66.24;100771.25;5063870;28;67324;-35
2022/08/23 02:16:54;;;;;;;;;;;;;;;31.64;65.86;100777.50;5066739;28;69913;-34
2022/08/23 02:19:34;;;;;;;;;;;;;;;31.67;65.92;100777.84;5062524;27;66305;-34
2022/08/23 02:22:07;;;;;;;;;;;;;;;31.69;65.52;100774.94;5063275;28;70433;-34
2022/08/23 02:24:43;;;;;;;;;;;;;;;31.71;65.91;100778.25;5062753;28;66866;-33
2022/08/23 02:27:15;;;;;;;;;;;;;;;31.73;65.58;100781.53;5063336;28;70062;-34
2022/08/23 02:29:49;;;;;;;;;;;;;;;31.74;65.36;100775.91;5076847;27;67225;-34
2022/08/23 02:32:22;;;;;;;;;;;;;;;31.76;65.08;100775.66;5061489;28;71200;-35
2022/08/23 02:34:56;;;;;;;;;;;;;;;31.77;65.33;100778.16;5063180;28;67180;-34
2022/08/23 02:37:36;;;;;;;;;;;;;;;31.79;64.86;100776.03;5080184;28;70606;-34
2022/08/23 02:40:09;;;;;;;;;;;;;;;31.81;64.71;100779.31;5063612;28;67441;-35
2022/08/23 02:42:40;;;;;;;;;;;;;;;31.84;65.13;100772.63;5046957;28;70249;-35
2022/08/23 02:45:13;;;;;;;;;;;;;;;31.86;64.38;100775.94;5062646;28;67372;-35
2022/08/23 02:47:48;;;;;;;;;;;;;;;31.88;64.27;100778.44;5063734;28;70735;-34
2022/08/23 02:50:26;;;;;;;;;;;;;;;31.89;64.65;100775.47;5062487;28;66375;-36
2022/08/23 02:52:58;;;;;;;;;;;;;;;31.90;64.73;100774.44;5081735;28;70083;-34
2022/08/23 02:55:30;;;;;;;;;;;;;;;31.91;64.17;100770.69;5063798;28;66460;-35
2022/08/23 02:58:04;;;;;;;;;;;;;;;31.93;64.35;100771.28;5080488;28;70556;-34
2022/08/23 03:00:37;;;;;;;;;;;;;;;31.94;64.18;100767.50;5080753;27;66679;-34
2022/08/23 03:03:09;;;;;;;;;;;;;;;31.96;64.11;100759.97;5051618;28;70583;-35
2022/08/23 03:05:42;;;;;;;;;;;;;;;31.98;64.30;100757.88;5074294;27;66516;-34
2022/08/23 03:08:14;;;;;;;;;;;;;;;32.00;64.15;100755.72;5058179;28;71067;-34
2022/08/23 03:10:51;;;;;;;;;;;;;;;32.00;63.81;100755.72;5051716;28;66696;-34
2022/08/23 03:13:23;;;;;;;;;;;;;;;32.03;63.87;100755.28;5080933;27;69858;-35
2022/08/23 03:15:56;;;;;;;;;;;;;;;32.05;63.98;100752.34;5062768;28;66904;-34
2022/08/23 03:18:27;;;;;;;;;;;;;;;32.08;63.54;100745.63;5062211;28;69930;-35
2022/08/23 03:21:03;;;;;;;;;;;;;;;32.10;63.32;100740.81;5074867;28;66548;-35
2022/08/23 03:23:36;;;;;;;;;;;;;;;32.11;63.20;100729.69;5062601;28;70228;-34
2022/08/23 03:26:09;;;;;;;;;;;;;;;32.13;63.37;100721.34;5061410;28;67210;-34
2022/08/23 03:28:43;;;;;;;;;;;;;;;32.15;62.96;100735.47;5052665;28;70290;-34
2022/08/23 03:31:16;;;;;;;;;;;;;;;32.17;62.79;100727.94;5061967;28;67210;-35
2022/08/23 03:34:13;;;;;;;;;;;;;;;32.19;62.95;100731.25;5076843;27;71085;-34
2022/08/23 03:36:45;;;;;;;;;;;;;;;32.20;63.08;100716.63;5078505;28;66722;-34
2022/08/23 03:39:17;;;;;;;;;;;;;;;32.21;62.99;100718.28;5079433;27;71683;-34
2022/08/23 03:41:49;;;;;;;;;;;;;;;32.23;62.89;100714.28;5045111;27;66932;-34
2022/08/23 03:44:21;;;;;;;;;;;;;;;32.25;63.10;100711.31;5062801;28;70196;-34
2022/08/23 03:46:53;;;;;;;;;;;;;;;32.26;62.87;100704.81;5063003;28;66692;-34
2022/08/23 03:49:27;;;;;;;;;;;;;;;32.27;62.78;100690.19;5080510;28;70481;-35
2022/08/23 03:51:59;;;;;;;;;;;;;;;32.28;62.71;100689.13;5062948;28;67284;-35
2022/08/23 03:54:33;;;;;;;;;;;;;;;32.28;63.19;100689.13;5060195;28;70981;-33
2022/08/23 03:57:08;;;;;;;;;;;;;;;32.28;62.73;100692.66;5061815;27;67179;-35
2022/08/23 03:59:41;;;;;;;;;;;;;;;32.30;62.77;100692.44;5080177;28;70877;-35
2022/08/23 04:02:13;;;;;;;;;;;;;;;32.30;62.76;100689.72;5079654;27;66622;-33
2022/08/23 04:04:45;;;;;;;;;;;;;;;32.31;62.58;100691.38;5080795;27;71022;-34
2022/08/23 04:07:38;;;;;;;;;;;;;;;32.31;62.66;100691.38;5063650;27;67129;-34
2022/08/23 04:10:13;;;;;;;;;;;;;;;32.33;62.65;100691.16;5045210;28;70143;-34
2022/08/23 04:12:51;;;;;;;;;;;;;;;32.33;62.87;100689.25;5061205;27;67173;-34
2022/08/23 04:15:23;;;;;;;;;;;;;;;32.34;62.58;100690.91;5060629;28;70765;-35
2022/08/23 04:17:57;;;;;;;;;;;;;;;32.33;62.46;100689.25;5067899;28;66343;-35
2022/08/23 04:20:30;;;;;;;;;;;;;;;32.34;62.49;100690.91;5064389;28;70489;-36
2022/08/23 04:23:05;;;;;;;;;;;;;;;32.34;62.46;100682.75;5064134;28;66900;-35
2022/08/23 04:25:53;;;;;;;;;;;;;;;32.35;62.45;100689.03;5064068;28;70439;-35
2022/08/23 04:28:27;;;;;;;;;;;;;;;32.35;62.37;100680.91;5065955;28;67163;-34
2022/08/23 04:31:00;;;;;;;;;;;;;;;32.34;62.46;100685.47;5063618;28;70710;-35
2022/08/23 04:33:34;;;;;;;;;;;;;;;32.36;62.44;100686.06;5065621;28;67678;-34
2022/08/23 04:36:13;;;;;;;;;;;;;;;32.37;62.41;100684.19;5056826;28;70200;-35
2022/08/23 04:38:45;;;;;;;;;;;;;;;32.37;62.32;100674.13;5069649;27;67271;-35
2022/08/23 04:44:08;;;;;;;;;;;;;;;32.40;62.20;100668.28;5082970;28;67071;-35
2022/08/23 04:46:42;;;;;;;;;;;;;;;32.41;62.36;100669.91;5064846;27;70971;-34
2022/08/23 04:49:14;;;;;;;;;;;;;;;32.42;62.25;100660.69;5064590;28;67200;-34
2022/08/23 04:51:46;;;;;;;;;;;;;;;32.43;62.08;100659.66;5083033;28;70780;-35
2022/08/23 04:54:24;;;;;;;;;;;;;;;32.45;61.76;100653.97;5064912;28;66310;-34
2022/08/23 04:57:24;;;;;;;;;;;;;;;32.45;62.02;100654.78;5064956;28;70840;-35
2022/08/23 04:59:56;;;;;;;;;;;;;;;32.46;62.29;100640.19;5064512;28;66613;-35
2022/08/23 05:02:28;;;;;;;;;;;;;;;32.47;61.74;100638.31;5064170;28;70211;-35
2022/08/23 05:05:02;;;;;;;;;;;;;;;32.49;61.82;100628.03;5064467;27;66636;-35
2022/08/23 05:07:43;;;;;;;;;;;;;;;32.51;61.56;100622.34;5056586;28;70838;-35
2022/08/23 05:10:16;;;;;;;;;;;;;;;32.54;61.84;100635.47;5066120;28;67040;-34
2022/08/23 05:12:53;;;;;;;;;;;;;;;32.53;61.64;100620.25;5053217;28;70760;-35
2022/08/23 05:15:25;;;;;;;;;;;;;;;32.56;61.65;100614.31;5064730;28;67065;-34
2022/08/23 05:18:04;;;;;;;;;;;;;;;32.56;61.83;100611.63;5061985;28;70851;-38
2022/08/23 05:20:38;;;;;;;;;;;;;;;32.59;61.51;100594.84;5065607;28;66989;-35
2022/08/23 05:23:10;;;;;;;;;;;;;;;32.60;61.61;100596.50;5083885;27;70572;-35
2022/08/23 05:25:50;;;;;;;;;;;;;;;32.60;61.72;100591.91;5089612;27;66384;-33
2022/08/23 05:28:30;;;;;;;;;;;;;;;32.63;61.28;100585.16;5046104;27;69919;-35
2022/08/23 05:31:05;;;;;;;;;;;;;;;32.66;61.55;100584.69;5088935;27;66338;-35
2022/08/23 05:33:51;;;;;;;;;;;;;;;32.67;61.44;100575.47;5060565;28;70384;-38
2022/08/23 05:36:31;;;;;;;;;;;;;;;32.69;61.23;100570.63;5070554;28;67261;-34
2022/08/23 05:39:04;;;;;;;;;;;;;;;32.69;61.23;100568.72;5066894;28;69745;-35
2022/08/23 05:41:39;;;;;;;;;;;;;;;32.71;61.32;100563.06;5063965;28;66211;-34
2022/08/23 05:44:13;;;;;;;;;;;;;;;32.72;61.25;100560.09;5064237;28;70335;-36
2022/08/23 05:46:46;;;;;;;;;;;;;;;32.75;61.37;100561.50;5064380;27;66997;-34
2022/08/23 05:49:35;;;;;;;;;;;;;;;32.78;61.12;100538.47;5058955;28;71008;-34
2022/08/23 05:52:10;;;;;;;;;;;;;;;32.80;61.11;100539.88;5062834;28;67445;-36
2022/08/23 05:54:44;;;;;;;;;;;;;;;32.82;61.05;100531.47;5064176;28;70621;-34
2022/08/23 05:57:37;;;;;;;;;;;;;;;32.84;60.98;100532.88;5079738;28;67306;-34
2022/08/23 06:00:14;;;;;;;;;;;;;;;32.86;60.91;100530.75;5063325;28;69966;-35
2022/08/23 06:02:52;;;;;;;;;;;;;;;32.89;60.64;100518.59;5036384;28;66989;-35
2022/08/23 06:05:24;;;;;;;;;;;;;;;32.91;60.64;100516.47;5063976;28;70593;-34
2022/08/23 06:07:58;;;;;;;;;;;;;;;32.93;60.83;100507.00;5063629;28;66348;-35
2022/08/23 06:10:31;;;;;;;;;;;;;;;32.96;60.78;100499.41;5066530;27;68979;-35
2022/08/23 06:13:09;;;;;;;;;;;;;;;33.00;60.58;100489.75;5063581;27;66701;-35
2022/08/23 06:15:44;;;;;;;;;;;;;;;33.02;60.43;100485.72;5068430;28;70972;-35
2022/08/23 06:18:16;;;;;;;;;;;;;;;33.06;60.51;100483.34;5062317;27;66599;-35
2022/08/23 06:20:48;;;;;;;;;;;;;;;33.08;60.42;100468.44;5081760;27;70805;-36
2022/08/23 06:23:31;;;;;;;;;;;;;;;33.11;60.38;100461.69;5078767;27;67315;-35
2022/08/23 06:26:14;;;;;;;;;;;;;;;33.15;60.34;100462.81;5077071;27;70088;-35
2022/08/23 06:28:47;;;;;;;;;;;;;;;33.18;60.34;100442.50;5067680;27;66313;-36
2022/08/23 06:34:18;;;;;;;;;;;;;;;33.25;60.07;100441.25;5068769;27;66202;-35
2022/08/23 06:37:16;;;;;;;;;;;;;;;33.28;60.04;100443.47;5080239;27;70054;-35
2022/08/23 06:40:16;;;;;;;;;;;;;;;33.32;59.76;100433.78;5081142;27;66909;-36
2022/08/23 06:42:52;;;;;;;;;;;;;;;33.35;59.79;100444.16;5066480;27;70532;-34
2022/08/23 06:45:28;;;;;;;;;;;;;;;33.38;59.68;100435.50;5074502;27;66312;-35
2022/08/23 06:48:07;;;;;;;;;;;;;;;33.42;59.81;100437.72;5047031;28;70267;-36
2022/08/23 06:50:40;;;;;;;;;;;;;;;33.44;59.42;100427.44;5084919;27;66547;-35
2022/08/23 06:53:29;;;;;;;;;;;;;;;33.47;59.59;100426.94;5079083;27;70829;-35
2022/08/23 06:56:18;;;;;;;;;;;;;;;33.50;59.40;100429.16;5050874;28;67056;-35
2022/08/23 06:59:05;;;;;;;;;;;;;;;33.52;59.39;100422.41;5078700;27;71010;-34
2022/08/23 07:01:57;;;;;;;;;;;;;;;33.55;59.24;100419.19;5092775;27;66277;-35
2022/08/23 07:04:54;;;;;;;;;;;;;;;33.59;59.04;100408.63;5088140;27;70944;-34
2022/08/23 07:07:45;;;;;;;;;;;;;;;33.61;58.98;100397.53;5081546;27;67502;-35
2022/08/23 07:10:17;;;;;;;;;;;;;;;33.64;59.20;100400.56;5077621;27;70838;-35
2022/08/23 07:12:49;;;;;;;;;;;;;;;33.67;58.76;100388.34;5081320;27;66961;-35
2022/08/23 07:15:22;;;;;;;;;;;;;;;33.68;58.71;100382.66;5062796;27;71036;-35
2022/08/23 07:17:55;;;;;;;;;;;;;;;33.72;58.92;100380.25;5078914;27;66450;-34
2022/08/23 07:20:28;;;;;;;;;;;;;;;33.75;58.62;100375.13;5063273;28;70056;-35
2022/08/23 07:23:00;;;;;;;;;;;;;;;33.80;58.58;100369.75;5093541;27;67164;-36
2022/08/23 07:25:32;;;;;;;;;;;;;;;33.83;58.29;100364.91;5080929;27;71165;-35
2022/08/23 07:28:08;;;;;;;;;;;;;;;33.87;58.47;100366.03;5074591;27;67194;-36
2022/08/23 07:30:42;;;;;;;;;;;;;;;33.90;58.00;100362.78;5071672;27;70174;-35
2022/08/23 07:33:16;;;;;;;;;;;;;;;33.93;58.21;100359.56;5038886;28;67245;-35
2022/08/23 07:36:22;;;;;;;;;;;;;;;33.97;58.19;100349.84;5077223;27;71078;-35
2022/08/23 07:38:54;;;;;;;;;;;;;;;34.00;58.05;100349.31;5067974;27;67054;-34
2022/08/23 07:41:28;;;;;;;;;;;;;;;34.04;58.18;100350.44;5051077;28;70925;-35
2022/08/23 07:44:04;;;;;;;;;;;;;;;34.06;57.95;100348.34;5052342;27;66375;-35
2022/08/23 07:46:39;;;;;;;;;;;;;;;34.09;57.73;100347.81;5048048;28;71027;-35
2022/08/23 07:49:12;;;;;;;;;;;;;;;34.13;57.86;100348.97;5066460;27;65701;-35
2022/08/23 07:51:50;;;;;;;;;;;;;;;34.15;57.49;100341.34;5059866;27;70727;-36
2022/08/23 07:54:24;;;;;;;;;;;;;;;34.19;57.63;100331.59;5053765;28;67406;-36
2022/08/23 07:57:31;;;;;;;;;;;;;;;34.23;57.88;100324.56;5016610;28;69956;-36
2022/08/23 08:00:35;;;;;;;;;;;;;;;34.26;57.53;100315.88;5055005;27;67343;-34
2022/08/23 08:03:27;;;;;;;;;;;;;;;34.28;57.61;100307.47;5066475;27;69872;-35
2022/08/23 08:06:20;;;;;;;;;;;;;;;34.32;57.54;100305.03;5048537;27;67035;-35
2022/08/23 08:08:52;;;;;;;;;;;;;;;34.34;57.43;100300.16;5071873;27;72298;-35
2022/08/23 08:11:26;;;;;;;;;;;;;;;34.37;57.22;100299.66;5070377;28;67027;-35
2022/08/23 08:14:07;;;;;;;;;;;;;;;34.40;57.41;100288.25;5081336;27;71116;-35
2022/08/23 08:16:47;;;;;;;;;;;;;;;34.42;57.22;100286.09;5065426;27;67470;-34
2022/08/23 08:19:35;;;;;;;;;;;;;;;34.45;57.14;100285.56;5083464;27;71080;-35
2022/08/23 08:22:36;;;;;;;;;;;;;;;34.48;57.28;100279.59;5076149;27;65890;-35
2022/08/23 08:25:27;;;;;;;;;;;;;;;34.52;57.10;100269.84;5077353;28;70725;-35
2022/08/23 08:27:59;;;;;;;;;;;;;;;34.53;56.89;100259.78;5054734;27;66342;-35
2022/08/23 08:30:32;;;;;;;;;;;;;;;34.56;57.11;100262.81;5069784;28;70678;-35
2022/08/23 08:33:06;;;;;;;;;;;;;;;34.56;56.87;100270.97;5046959;27;67253;-36
2022/08/23 08:35:39;;;;;;;;;;;;;;;34.58;57.29;100265.28;5062382;27;70684;-36
2022/08/23 08:38:11;;;;;;;;;;;;;;;34.59;56.97;100272.38;5057782;28;67900;-35
2022/08/23 08:40:43;;;;;;;;;;;;;;;34.59;57.10;100284.06;5060160;27;70840;-35
2022/08/23 08:43:18;;;;;;;;;;;;;;;34.61;56.73;100284.66;5072555;27;65921;-35
2022/08/23 08:46:16;;;;;;;;;;;;;;;34.63;56.89;100293.38;5072302;27;72069;-36
2022/08/23 08:48:52;;;;;;;;;;;;;;;34.64;57.11;100297.75;5060776;27;66795;-35
2022/08/23 08:51:27;;;;;;;;;;;;;;;34.66;56.83;100301.03;5068224;27;69133;-35
2022/08/23 08:54:01;;;;;;;;;;;;;;;34.67;56.63;100310.84;5087119;27;66190;-34
2022/08/23 08:56:45;;;;;;;;;;;;;;;34.68;56.71;100315.19;5082722;27;70912;-35
2022/08/23 08:59:33;;;;;;;;;;;;;;;34.69;56.93;100324.22;5062264;27;67037;-35
2022/08/23 09:02:06;;;;;;;;;;;;;;;34.71;56.78;100332.94;5087935;27;70581;-36
2022/08/23 09:05:05;;;;;;;;;;;;;;;34.71;56.72;100343.81;5074506;27;67233;-35
2022/08/23 09:07:43;;;;;;;;;;;;;;;34.72;57.15;100339.22;5081504;27;70716;-35
2022/08/23 09:10:17;;;;;;;;;;;;;;;34.72;57.02;100340.03;5094353;27;67172;-35
2022/08/23 09:13:30;;;;;;;;;;;;;;;34.70;57.37;100353.91;5071650;27;70926;-35
2022/08/23 09:16:27;;;;;;;;;;;;;;;34.70;56.92;100348.47;5079637;27;67101;-36
2022/08/23 09:19:01;;;;;;;;;;;;;;;34.69;57.15;100360.44;5086923;27;70452;-35
2022/08/23 09:21:52;;;;;;;;;;;;;;;34.68;57.32;100358.78;5081941;27;66543;-36
2022/08/23 09:24:26;;;;;;;;;;;;;;;34.68;57.47;100361.50;5064924;27;70119;-35
2022/08/23 09:27:10;;;;;;;;;;;;;;;34.66;57.10;100355.53;5068605;28;67205;-34
2022/08/23 09:29:51;;;;;;;;;;;;;;;34.66;57.44;100363.69;5074000;27;70326;-35
2022/08/23 09:32:27;;;;;;;;;;;;;;;34.65;57.55;100367.47;5065502;27;67241;-35
2022/08/23 09:35:13;;;;;;;;;;;;;;;34.65;57.51;100383.00;5068069;28;70727;-35
2022/08/23 09:37:55;;;;;;;;;;;;;;;34.63;57.64;100391.44;5051988;27;66733;-35
2022/08/23 09:40:33;;;;;;;;;;;;;;;34.61;57.57;100388.16;5084459;27;70324;-38
2022/08/23 09:43:22;;;;;;;;;;;;;;;34.59;57.27;100379.41;5071830;28;67074;-35
2022/08/23 09:45:57;;;;;;;;;;;;;;;34.57;57.73;100381.56;5072981;27;70823;-35
2022/08/23 09:48:41;;;;;;;;;;;;;;;34.57;57.64;100370.66;5068524;27;67221;-35
2022/08/23 09:51:23;;;;;;;;;;;;;;;34.57;57.54;100367.13;5079038;27;70058;-36
2022/08/23 09:54:12;;;;;;;;;;;;;;;34.55;57.98;100372.81;5048318;27;66363;-34
2022/08/23 09:56:51;;;;;;;;;;;;;;;34.53;58.18;100388.59;5081923;27;70529;-38
2022/08/23 09:59:27;;;;;;;;;;;;;;;34.54;58.47;100381.22;5080586;27;66572;-36
2022/08/23 10:02:12;;;;;;;;;;;;;;;34.53;57.91;100385.03;5079505;27;70998;-36
2022/08/23 10:05:04;;;;;;;;;;;;;;;34.51;58.18;100371.66;5080380;27;67367;-36
2022/08/23 10:07:42;;;;;;;;;;;;;;;34.51;58.27;100379.03;5047065;28;70349;-36
2022/08/23 10:10:19;;;;;;;;;;;;;;;34.49;58.42;100392.88;5058683;27;66059;-39
2022/08/23 10:12:55;;;;;;;;;;;;;;;34.03;60.83;100411.41;5064580;28;70262;-35
2022/08/23 10:15:51;;;;;;;;;;;;;;;33.74;62.26;100417.03;5067819;27;67168;-34
2022/08/23 10:18:41;;;;;;;;;;;;;;;33.57;63.62;100410.78;5049930;27;70400;-34
2022/08/23 10:21:20;;;;;;;;;;;;;;;33.43;64.65;100414.88;5052573;27;66119;-35
2022/08/23 10:24:13;;;;;;;;;;;;;;;33.32;65.25;100420.19;5050145;27;70561;-36
2022/08/23 10:29:35;;;;;;;;;;;;;;;33.25;65.69;100421.41;5069117;27;67247;-36
2022/08/23 10:30:01;;;;;;;;;;;;;;;33.20;66.51;100413.19;5083602;27;70202;-35
2022/08/23 10:32:53;;;;;;;;;;;;;;;33.14;66.75;100425.88;5065606;27;66558;-35
2022/08/23 10:35:25;;;;;;;;;;;;;;;33.07;66.98;100446.94;5050574;27;70852;-35
2022/08/23 10:38:18;;;;;;;;;;;;;;;33.04;67.72;100456.41;5066582;27;67224;-34
2022/08/23 10:41:10;;;;;;;;;;;;;;;33.01;68.58;100440.56;5062820;27;71493;-34
2022/08/23 10:44:05;;;;;;;;;;;;;;;32.99;68.77;100426.41;5062401;27;66925;-35
2022/08/23 10:46:43;;;;;;;;;;;;;;;33.19;67.83;100436.81;5066970;28;69942;-36
2022/08/23 10:49:16;;;;;;;;;;;;;;;33.35;66.97;100455.03;5082334;27;67008;-35
2022/08/23 10:51:49;;;;;;;;;;;;;;;33.46;66.47;100452.44;5053282;27;70034;-35
2022/08/23 10:54:33;;;;;;;;;;;;;;;33.54;65.84;100447.47;5068761;28;68718;-35
2022/08/23 10:57:11;;;;;;;;;;;;;;;33.20;66.02;100386.81;5061242;27;70739;-38
2022/08/23 10:59:47;;;;;;;;;;;;;;;33.66;65.69;100463.69;5065973;27;67301;-35
2022/08/23 11:02:34;;;;;;;;;;;;;;;33.71;65.51;100465.66;5051615;27;70825;-35
2022/08/23 11:05:25;;;;;;;;;;;;;;;33.72;65.15;100462.69;5084162;27;67180;-35
2022/08/23 11:08:04;;;;;;;;;;;;;;;33.76;65.03;100471.97;5068513;27;71578;-36
2022/08/23 11:10:47;;;;;;;;;;;;;;;33.79;64.89;100478.81;5068952;27;67716;-35
2022/08/23 11:13:33;;;;;;;;;;;;;;;33.83;64.78;100490.06;5049442;27;70659;-35
2022/08/23 11:16:13;;;;;;;;;;;;;;;33.83;64.63;100495.50;5062365;28;65936;-36
2022/08/23 11:18:48;;;;;;;;;;;;;;;33.85;64.60;100504.19;5055730;28;70058;-36
2022/08/23 11:21:39;;;;;;;;;;;;;;;33.86;64.57;100527.63;5059975;28;66996;-35
2022/08/23 11:24:12;;;;;;;;;;;;;;;33.86;64.44;100533.06;5059223;28;70653;-36
2022/08/23 11:26:46;;;;;;;;;;;;;;;33.63;64.59;100490.53;5060576;28;67616;-37
2022/08/23 11:29:20;;;;;;;;;;;;;;;33.84;64.35;100535.22;5081386;28;70934;-36
2022/08/23 11:32:10;;;;;;;;;;;;;;;33.85;64.61;100543.16;5065248;28;67352;-36
2022/08/23 11:34:47;;;;;;;;;;;;;;;33.84;64.06;100562.44;5080523;27;70648;-35
2022/08/23 11:37:19;;;;;;;;;;;;;;;33.83;64.15;100572.50;5066223;28;66572;-35
2022/08/23 11:40:00;;;;;;;;;;;;;;;33.83;63.89;100575.22;5044933;28;70903;-36
2022/08/23 11:42:42;;;;;;;;;;;;;;;33.81;63.74;100580.88;5079017;27;66917;-35
2022/08/23 11:45:34;;;;;;;;;;;;;;;33.80;63.69;100581.97;5080298;28;70829;-36
2022/08/23 11:48:25;;;;;;;;;;;;;;;33.77;63.53;100582.47;5052295;28;66513;-37
2022/08/23 11:51:04;;;;;;;;;;;;;;;33.76;63.47;100588.97;5080063;28;70223;-35
2022/08/23 11:53:48;;;;;;;;;;;;;;;33.75;63.33;100600.09;5083070;28;67338;-36
2022/08/23 11:56:46;;;;;;;;;;;;;;;33.74;63.34;100601.16;5074967;28;70667;-37
2022/08/23 11:59:33;;;;;;;;;;;;;;;33.73;63.17;100605.78;5081988;28;66385;-34
2022/08/23 12:02:32;;;;;;;;;;;;;;;33.71;62.90;100613.38;5083943;27;70906;-36
2022/08/23 12:05:19;;;;;;;;;;;;;;;33.71;63.16;100615.25;5063912;28;67263;-36
2022/08/23 12:07:54;;;;;;;;;;;;;;;33.69;62.86;100626.41;5083678;28;71219;-36
2022/08/23 12:10:41;;;;;;;;;;;;;;;33.68;62.95;100624.72;5082978;28;66246;-35
2022/08/23 12:13:19;;;;;;;;;;;;;;;33.37;64.83;100635.03;5058585;28;70101;-35
2022/08/23 12:16:03;;;;;;;;;;;;;;;33.21;65.66;100651.28;5079818;28;67048;-36
2022/08/23 12:18:44;;;;;;;;;;;;;;;33.07;66.38;100656.16;5081374;27;70902;-37
2022/08/23 12:21:20;;;;;;;;;;;;;;;32.98;66.85;100658.41;5082209;28;66170;-36
2022/08/23 12:24:12;;;;;;;;;;;;;;;32.89;67.21;100655.25;5070516;27;71091;-35
2022/08/23 12:26:48;;;;;;;;;;;;;;;32.83;67.27;100658.94;5076234;28;67219;-35
2022/08/23 12:29:23;;;;;;;;;;;;;;;32.77;67.82;100654.44;5080648;28;70221;-37
2022/08/23 12:32:13;;;;;;;;;;;;;;;32.75;68.75;100659.28;5081580;28;66454;-36
2022/08/23 12:34:52;;;;;;;;;;;;;;;32.73;69.23;100655.97;5065438;28;70251;-35
2022/08/23 12:37:30;;;;;;;;;;;;;;;32.61;68.59;100655.19;5083100;27;67458;-35
2022/08/23 12:40:07;;;;;;;;;;;;;;;32.48;67.21;100661.66;5080095;28;70192;-36
2022/08/23 12:42:40;;;;;;;;;;;;;;;32.37;66.39;100663.28;5082243;27;66996;-34
2022/08/23 12:45:13;;;;;;;;;;;;;;;32.30;65.46;100656.34;5085241;27;70720;-33
2022/08/23 12:47:57;;;;;;;;;;;;;;;32.22;65.66;100660.22;5061007;27;66890;-35
2022/08/23 12:50:34;;;;;;;;;;;;;;;32.13;64.90;100667.06;5058678;28;70321;-37
2022/08/23 12:53:10;;;;;;;;;;;;;;;32.04;63.71;100675.53;5080649;27;66200;-36
2022/08/23 12:55:47;;;;;;;;;;;;;;;31.97;62.69;100674.00;5045526;28;69843;-36
2022/08/23 12:58:26;;;;;;;;;;;;;;;31.90;62.18;100665.94;5080803;27;67234;-36
2022/08/23 13:01:05;;;;;;;;;;;;;;;31.85;63.12;100676.66;5063274;28;70802;-36
2022/08/23 13:03:40;;;;;;;;;;;;;;;31.78;62.45;100679.44;5062095;28;66098;-42
2022/08/23 13:06:14;;;;;;;;;;;;;;;31.72;61.85;100676.84;5029798;28;70158;-35
2022/08/23 13:08:50;;;;;;;;;;;;;;;31.68;61.35;100681.06;5077570;28;66204;-36
2022/08/23 13:11:24;;;;;;;;;;;;;;;31.63;60.69;100689.06;5060170;28;70868;-36
2022/08/23 13:13:57;;;;;;;;;;;;;;;31.59;60.13;100694.09;5059932;28;66274;-37
2022/08/23 13:16:32;;;;;;;;;;;;;;;31.54;59.66;100708.38;5046782;28;71080;-35
2022/08/23 13:19:21;;;;;;;;;;;;;;;31.52;58.33;100713.19;5024987;28;65974;-39
2022/08/23 13:22:13;;;;;;;;;;;;;;;31.48;58.21;100714.72;5077105;28;70559;-35
2022/08/23 13:24:46;;;;;;;;;;;;;;;31.42;57.91;100715.59;5026891;28;66891;-38
2022/08/23 13:28:32;;;;;;;;;;;;;;;31.33;57.68;100708.81;5055986;28;70136;-36
2022/08/23 13:31:06;;;;;;;;;;;;;;;31.31;57.89;100708.22;5079116;28;67086;-40
2022/08/23 13:33:39;;;;;;;;;;;;;;;31.27;56.77;100707.03;5046326;28;70706;-37
2022/08/23 13:36:16;;;;;;;;;;;;;;;31.24;56.72;100702.06;5031667;28;65604;-36
2022/08/23 13:38:50;;;;;;;;;;;;;;;31.17;56.54;100699.41;5057085;28;71109;-37
2022/08/23 13:41:29;;;;;;;;;;;;;;;31.14;56.36;100702.56;5055653;28;67163;-38
2022/08/23 13:44:08;;;;;;;;;;;;;;;31.11;56.21;100708.44;5059239;28;70892;-38
2022/08/23 13:46:45;;;;;;;;;;;;;;;31.08;55.85;100709.72;5036444;28;66640;-36